createdAt,value
2017-10-03T00:02:11.973Z,4.83
2017-10-03T00:04:39.442Z,5.40
2017-10-03T00:07:06.903Z,4.57
2017-10-03T00:09:34.358Z,4.80
2017-10-03T00:12:01.986Z,4.80
2017-10-03T00:14:29.454Z,4.30
2017-10-03T00:16:56.931Z,4.10
2017-10-03T00:19:24.600Z,4.93
2017-10-03T00:21:52.462Z,4.23
2017-10-03T00:24:20.319Z,3.80
2017-10-03T00:26:47.793Z,4.90
2017-10-03T00:29:15.638Z,3.90
2017-10-03T00:31:43.099Z,4.87
2017-10-03T00:34:10.686Z,3.93
2017-10-03T00:36:38.157Z,4.60
2017-10-03T00:39:05.612Z,3.40
2017-10-03T00:41:33.074Z,5.03
2017-10-03T00:44:00.531Z,4.57
2017-10-03T00:46:28.030Z,5.00
2017-10-03T00:48:55.490Z,4.73
2017-10-03T00:51:22.959Z,3.83
2017-10-03T00:53:50.852Z,4.83
2017-10-03T00:56:18.311Z,3.97
2017-10-03T00:58:45.779Z,4.30
2017-10-03T01:01:13.462Z,4.30
2017-10-03T01:03:40.922Z,3.50
2017-10-03T01:06:08.382Z,3.83
2017-10-03T01:08:35.882Z,4.10
2017-10-03T01:11:03.338Z,4.40
2017-10-03T01:13:30.797Z,4.43
2017-10-03T01:15:58.257Z,4.27
2017-10-03T01:18:25.726Z,4.70
2017-10-03T01:20:54.034Z,3.63
2017-10-03T01:23:21.494Z,3.80
2017-10-03T01:25:49.355Z,4.20
2017-10-03T01:28:16.851Z,3.83
2017-10-03T01:30:44.310Z,4.47
2017-10-03T01:33:11.769Z,3.90
2017-10-03T01:35:39.264Z,3.53
2017-10-03T01:38:06.722Z,3.93
2017-10-03T01:40:34.187Z,3.87
2017-10-03T01:43:01.684Z,3.70
2017-10-03T01:45:29.133Z,4.07
2017-10-03T01:47:56.595Z,3.97
2017-10-03T01:50:24.078Z,4.30
2017-10-03T01:52:51.539Z,4.97
2017-10-03T01:55:19.002Z,3.90
2017-10-03T01:57:46.651Z,4.80
2017-10-03T02:00:14.110Z,4.40
2017-10-03T02:02:41.573Z,3.70
2017-10-03T02:05:09.351Z,4.00
2017-10-03T02:07:36.807Z,4.67
2017-10-03T02:10:04.266Z,4.20
2017-10-03T02:12:31.763Z,3.80
2017-10-03T02:14:59.239Z,4.20
2017-10-03T02:17:26.714Z,4.73
2017-10-03T02:19:54.490Z,4.73
2017-10-03T02:22:21.951Z,4.27
2017-10-03T02:24:49.648Z,4.50
2017-10-03T02:27:17.117Z,4.20
2017-10-03T02:29:44.583Z,3.73
2017-10-03T02:32:12.037Z,4.07
2017-10-03T02:34:39.794Z,5.00
2017-10-03T02:37:07.265Z,4.13
2017-10-03T02:39:34.707Z,4.37
2017-10-03T02:42:02.346Z,4.03
2017-10-03T02:44:29.802Z,4.10
2017-10-03T02:46:57.242Z,4.10
2017-10-03T02:49:25.138Z,5.17
2017-10-03T02:51:52.600Z,3.93
2017-10-03T02:54:20.049Z,4.93
2017-10-03T02:56:47.502Z,4.37
2017-10-03T02:59:15.065Z,4.03
2017-10-03T03:01:42.517Z,4.37
2017-10-03T03:04:09.979Z,4.60
2017-10-03T03:06:37.449Z,4.40
2017-10-03T03:09:04.904Z,4.80
2017-10-03T03:11:32.354Z,6.27
2017-10-03T03:14:00.077Z,4.93
2017-10-03T03:16:27.530Z,5.30
2017-10-03T03:18:54.986Z,4.50
2017-10-03T03:21:23.022Z,4.83
2017-10-03T03:23:50.453Z,4.33
2017-10-03T03:26:17.927Z,5.80
2017-10-03T03:28:45.409Z,6.40
2017-10-03T03:31:13.249Z,4.93
2017-10-03T03:33:40.704Z,4.77
2017-10-03T03:36:08.195Z,4.93
2017-10-03T03:38:35.657Z,5.27
2017-10-03T03:41:03.110Z,4.83
2017-10-03T03:43:30.565Z,6.20
2017-10-03T03:45:58.346Z,5.80
2017-10-03T03:48:25.806Z,4.83
2017-10-03T03:50:53.253Z,4.60
2017-10-03T03:53:20.709Z,4.80
2017-10-03T03:55:48.503Z,5.13
2017-10-03T03:58:15.958Z,4.83
2017-10-03T04:00:43.412Z,5.80
2017-10-03T04:03:11.193Z,6.27
2017-10-03T04:05:38.643Z,4.73
2017-10-03T04:08:06.094Z,4.90
2017-10-03T04:10:33.564Z,5.87
2017-10-03T04:13:01.013Z,5.33
2017-10-03T04:15:28.877Z,5.30
2017-10-03T04:17:56.366Z,4.70
2017-10-03T04:20:23.814Z,5.20
2017-10-03T04:22:51.662Z,4.90
2017-10-03T04:25:19.518Z,4.97
2017-10-03T04:27:46.969Z,4.87
2017-10-03T04:30:14.702Z,5.00
2017-10-03T04:32:42.153Z,5.70
2017-10-03T04:35:09.610Z,4.53
2017-10-03T04:37:37.082Z,5.50
2017-10-03T04:40:04.550Z,6.53
2017-10-03T04:42:32.009Z,5.10
2017-10-03T04:44:59.501Z,4.80
2017-10-03T04:47:26.952Z,5.13
2017-10-03T04:49:54.431Z,6.03
2017-10-03T04:52:22.058Z,5.10
2017-10-03T04:54:49.509Z,6.33
2017-10-03T04:57:17.361Z,4.80
2017-10-03T04:59:45.272Z,4.70
2017-10-03T05:02:12.725Z,5.23
2017-10-03T05:04:40.185Z,5.23
2017-10-03T05:07:07.670Z,5.07
2017-10-03T05:09:35.126Z,4.63
2017-10-03T05:12:02.592Z,6.90
2017-10-03T05:14:30.079Z,6.10
2017-10-03T05:16:57.533Z,5.57
2017-10-03T05:19:25.381Z,4.90
2017-10-03T05:21:53.274Z,5.13
2017-10-03T05:24:20.741Z,5.83
2017-10-03T05:26:48.382Z,6.33
2017-10-03T05:29:15.961Z,7.27
2017-10-03T05:31:43.426Z,7.20
2017-10-03T05:34:10.872Z,5.20
2017-10-03T05:36:38.462Z,5.73
2017-10-03T05:39:05.930Z,4.93
2017-10-03T05:41:33.385Z,5.63
2017-10-03T05:44:00.845Z,6.10
2017-10-03T05:46:28.330Z,5.20
2017-10-03T05:48:55.778Z,5.87
2017-10-03T05:51:23.632Z,5.60
2017-10-03T05:53:51.477Z,5.97
2017-10-03T05:56:18.962Z,5.00
2017-10-03T05:58:46.807Z,5.33
2017-10-03T06:01:14.262Z,5.60
2017-10-03T06:03:42.163Z,5.40
2017-10-03T06:06:09.622Z,5.30
2017-10-03T06:08:37.069Z,5.03
2017-10-03T06:11:04.541Z,5.13
2017-10-03T06:13:32.002Z,5.47
2017-10-03T06:15:59.458Z,5.30
2017-10-03T06:18:27.360Z,5.10
2017-10-03T06:20:54.818Z,6.27
2017-10-03T06:23:22.276Z,5.90
2017-10-03T06:25:50.025Z,5.10
2017-10-03T06:28:17.477Z,4.70
2017-10-03T06:30:44.932Z,4.87
2017-10-03T06:33:12.519Z,5.40
2017-10-03T06:35:40.366Z,4.87
2017-10-03T06:38:07.821Z,5.30
2017-10-03T06:40:35.390Z,5.83
2017-10-03T06:43:02.829Z,4.90
2017-10-03T06:45:30.281Z,4.87
2017-10-03T06:47:58.053Z,5.70
2017-10-03T06:50:25.502Z,5.90
2017-10-03T06:52:52.958Z,5.13
2017-10-03T06:55:20.438Z,5.60
2017-10-03T06:57:48.286Z,5.10
2017-10-03T07:00:16.145Z,6.60
2017-10-03T07:02:43.609Z,4.77
2017-10-03T07:05:11.461Z,4.87
2017-10-03T07:07:38.914Z,5.63
2017-10-03T07:10:06.573Z,5.20
2017-10-03T07:12:34.033Z,4.90
2017-10-03T07:15:01.498Z,5.30
2017-10-03T07:17:29.657Z,5.50
2017-10-03T07:19:57.125Z,5.87
2017-10-03T07:22:24.993Z,6.00
2017-10-03T07:24:52.886Z,5.90
2017-10-03T07:27:20.333Z,6.03
2017-10-03T07:29:47.890Z,5.93
2017-10-03T07:32:15.742Z,6.23
2017-10-03T07:34:43.595Z,6.20
2017-10-03T07:37:11.078Z,7.27
2017-10-03T07:39:38.530Z,7.00
2017-10-03T07:42:05.989Z,7.50
2017-10-03T07:44:33.806Z,9.27
2017-10-03T07:47:01.283Z,8.47
2017-10-03T07:49:28.733Z,6.60
2017-10-03T07:51:56.199Z,7.10
2017-10-03T07:54:24.072Z,6.90
2017-10-03T07:56:51.937Z,7.17
2017-10-03T07:59:19.795Z,7.13
2017-10-03T08:01:47.641Z,6.80
2017-10-03T08:04:15.101Z,7.93
2017-10-03T08:06:42.550Z,8.20
2017-10-03T08:09:10.001Z,7.20
2017-10-03T08:11:37.653Z,8.17
2017-10-03T08:14:05.109Z,7.53
2017-10-03T08:16:32.569Z,7.23
2017-10-03T08:19:00.041Z,8.77
2017-10-03T08:21:27.489Z,7.13
2017-10-03T08:23:54.950Z,7.67
2017-10-03T08:26:22.453Z,7.20
2017-10-03T08:28:49.910Z,7.70
2017-10-03T08:31:17.371Z,6.60
2017-10-03T08:33:44.863Z,6.60
2017-10-03T08:36:12.329Z,9.10
2017-10-03T08:38:40.177Z,5.43
2017-10-03T08:41:07.638Z,5.10
2017-10-03T08:43:35.099Z,7.90
2017-10-03T08:46:02.989Z,3.87
2017-10-03T08:48:30.447Z,5.80
2017-10-03T08:50:57.938Z,5.73
2017-10-03T08:53:25.408Z,3.83
2017-10-03T08:55:52.861Z,3.80
2017-10-03T08:58:20.314Z,3.70
2017-10-03T09:00:47.787Z,3.90
2017-10-03T09:03:15.236Z,3.40
2017-10-03T09:05:42.690Z,4.17
2017-10-03T09:08:10.442Z,4.80
2017-10-03T09:10:37.902Z,5.20
2017-10-03T09:13:05.356Z,4.53
2017-10-03T09:15:32.928Z,4.77
2017-10-03T09:18:00.382Z,4.37
2017-10-03T09:20:27.883Z,4.53
2017-10-03T09:22:55.591Z,4.93
2017-10-03T09:25:23.042Z,3.83
2017-10-03T09:27:50.495Z,3.53
2017-10-03T09:30:18.000Z,4.43
2017-10-03T09:32:45.845Z,3.93
2017-10-03T09:35:13.689Z,3.43
2017-10-03T09:37:41.153Z,4.10
2017-10-03T09:40:08.631Z,3.80
2017-10-03T09:42:36.470Z,5.33
2017-10-03T09:45:03.946Z,4.20
2017-10-03T09:47:31.790Z,5.10
2017-10-03T09:49:59.240Z,5.30
2017-10-03T09:52:26.810Z,4.43
2017-10-03T09:54:54.662Z,5.30
2017-10-03T09:57:22.117Z,4.63
2017-10-03T09:59:49.601Z,5.40
2017-10-03T10:02:17.063Z,5.73
2017-10-03T10:04:44.913Z,5.87
2017-10-03T10:07:12.785Z,4.60
2017-10-03T10:09:40.633Z,4.20
2017-10-03T10:12:08.089Z,4.07
2017-10-03T10:14:35.564Z,4.27
2017-10-03T10:17:03.416Z,4.00
2017-10-03T10:19:31.257Z,4.00
2017-10-03T10:21:59.326Z,3.67
2017-10-03T10:24:26.778Z,6.00
2017-10-03T10:26:54.238Z,4.00
2017-10-03T10:29:21.697Z,4.17
2017-10-03T10:31:49.173Z,4.53
2017-10-03T10:34:17.022Z,4.30
2017-10-03T10:36:44.477Z,3.60
2017-10-03T10:39:11.966Z,4.53
2017-10-03T10:41:39.421Z,3.30
2017-10-03T10:44:06.941Z,3.13
2017-10-03T10:46:34.439Z,2.80
2017-10-03T10:49:01.890Z,2.37
2017-10-03T10:51:29.339Z,2.57
2017-10-03T10:53:57.218Z,2.70
2017-10-03T10:56:24.841Z,2.33
2017-10-03T10:58:52.349Z,2.77
2017-10-03T11:01:20.143Z,2.87
2017-10-03T11:03:47.610Z,2.87
2017-10-03T11:06:15.430Z,3.33
2017-10-03T11:08:43.093Z,2.60
2017-10-03T11:11:10.556Z,2.90
2017-10-03T11:13:38.010Z,2.93
2017-10-03T11:16:05.474Z,3.00
2017-10-03T11:18:32.934Z,3.17
2017-10-03T11:21:00.389Z,2.80
2017-10-03T11:23:39.642Z,3.53
2017-10-03T11:26:07.099Z,2.90
2017-10-03T11:28:34.541Z,2.50
2017-10-03T11:31:02.194Z,2.53
2017-10-03T11:33:29.645Z,2.57
2017-10-03T11:35:57.094Z,3.00
2017-10-03T11:38:24.546Z,3.27
2017-10-03T11:40:52.017Z,2.80
2017-10-03T11:43:19.474Z,2.57
2017-10-03T11:45:47.097Z,3.27
2017-10-03T11:48:14.549Z,3.20
2017-10-03T11:50:42.213Z,3.17
2017-10-03T11:53:09.670Z,4.10
2017-10-03T11:55:37.136Z,3.00
2017-10-03T11:58:04.650Z,2.90
2017-10-03T12:00:32.501Z,4.33
2017-10-03T12:03:15.706Z,3.10
2017-10-03T12:05:43.894Z,2.93
2017-10-03T12:08:11.358Z,3.83
2017-10-03T12:10:39.481Z,2.97
2017-10-03T12:13:17.192Z,3.27
2017-10-03T12:16:00.169Z,4.23
2017-10-03T12:18:27.618Z,2.60
2017-10-03T12:20:55.070Z,2.57
2017-10-03T12:23:23.305Z,2.70
2017-10-03T12:25:50.764Z,3.23
2017-10-03T12:28:18.226Z,3.00
2017-10-03T12:30:45.972Z,2.60
2017-10-03T12:33:13.426Z,2.33
2017-10-03T12:35:40.877Z,2.73
2017-10-03T12:38:08.363Z,2.50
2017-10-03T12:40:35.813Z,2.50
2017-10-03T12:43:03.676Z,2.50
2017-10-03T12:45:31.137Z,3.17
2017-10-03T12:47:59.005Z,3.00
2017-10-03T12:50:26.866Z,2.90
2017-10-03T12:52:54.715Z,2.87
2017-10-03T12:55:22.166Z,2.70
2017-10-03T12:57:49.806Z,3.00
2017-10-03T13:00:17.257Z,2.90
2017-10-03T13:02:44.717Z,2.77
2017-10-03T13:05:12.518Z,2.70
2017-10-03T13:07:39.963Z,3.27
2017-10-03T13:10:07.410Z,3.80
2017-10-03T13:12:35.165Z,3.40
2017-10-03T13:15:02.627Z,3.13
2017-10-03T13:17:30.083Z,3.27
2017-10-03T13:19:57.579Z,3.10
2017-10-03T13:22:25.031Z,2.93
2017-10-03T13:24:52.502Z,2.83
2017-10-03T13:27:19.978Z,3.90
2017-10-03T13:29:47.458Z,3.00
2017-10-03T13:32:14.900Z,3.20
2017-10-03T13:34:42.635Z,3.40
2017-10-03T13:37:10.093Z,3.00
2017-10-03T13:39:37.538Z,2.97
2017-10-03T13:42:05.020Z,3.10
2017-10-03T13:44:32.483Z,3.63
2017-10-03T13:46:59.930Z,3.07
2017-10-03T13:49:27.609Z,3.33
2017-10-03T13:51:55.074Z,4.40
2017-10-03T13:54:22.566Z,3.30
2017-10-03T13:56:50.032Z,2.93
2017-10-03T13:59:17.494Z,4.07
2017-10-03T14:01:44.955Z,4.03
2017-10-03T14:04:12.751Z,3.40
2017-10-03T14:06:40.238Z,4.70
2017-10-03T14:09:07.697Z,4.87
2017-10-03T14:11:35.729Z,3.27
2017-10-03T14:14:03.185Z,3.80
2017-10-03T14:16:30.641Z,3.57
2017-10-03T14:18:58.119Z,4.17
2017-10-03T14:21:25.577Z,3.13
2017-10-03T14:23:53.034Z,2.87
2017-10-03T14:26:21.269Z,3.83
2017-10-03T14:28:48.719Z,3.23
2017-10-03T14:31:16.178Z,4.03
2017-10-03T14:33:43.647Z,2.73
2017-10-03T14:36:11.101Z,4.60
2017-10-03T14:38:38.558Z,3.40
2017-10-03T14:41:06.025Z,3.23
2017-10-03T14:43:33.534Z,5.00
2017-10-03T14:46:01.038Z,3.30
2017-10-03T14:48:28.885Z,2.90
2017-10-03T14:50:56.357Z,4.10
2017-10-03T14:53:24.209Z,3.20
2017-10-03T14:55:51.674Z,3.43
2017-10-03T14:58:19.128Z,2.90
2017-10-03T15:00:46.574Z,2.87
2017-10-03T15:03:14.027Z,2.93
2017-10-03T15:05:41.614Z,3.20
2017-10-03T15:08:09.601Z,2.93
2017-10-03T15:10:37.306Z,2.50
2017-10-03T15:13:04.889Z,2.90
2017-10-03T15:15:32.734Z,3.00
2017-10-03T15:18:00.190Z,2.70
2017-10-03T15:20:27.647Z,3.90
2017-10-03T15:22:55.093Z,3.10
2017-10-03T15:25:22.565Z,3.23
2017-10-03T15:27:50.214Z,3.47
2017-10-03T15:30:18.182Z,2.80
2017-10-03T15:32:45.666Z,2.60
2017-10-03T15:35:13.517Z,2.73
2017-10-03T15:37:40.980Z,3.63
2017-10-03T15:40:08.851Z,3.27
2017-10-03T15:42:36.701Z,2.93
2017-10-03T15:45:04.454Z,3.60
2017-10-03T15:47:31.901Z,3.20
2017-10-03T15:49:59.358Z,4.73
2017-10-03T15:52:27.125Z,3.17
2017-10-03T15:54:54.575Z,3.03
2017-10-03T15:57:22.031Z,3.30
2017-10-03T15:59:49.519Z,3.10
2017-10-03T16:02:17.382Z,3.63
2017-10-03T16:04:45.235Z,3.40
2017-10-03T16:07:13.246Z,3.30
2017-10-03T16:09:40.707Z,3.23
2017-10-03T16:12:08.171Z,2.90
2017-10-03T16:14:35.966Z,4.00
2017-10-03T16:17:03.414Z,3.63
2017-10-03T16:19:30.897Z,3.80
2017-10-03T16:21:58.655Z,3.40
2017-10-03T16:24:26.503Z,3.47
2017-10-03T16:26:53.949Z,3.13
2017-10-03T16:29:21.416Z,3.80
2017-10-03T16:31:48.875Z,4.40
2017-10-03T16:34:16.754Z,3.80
2017-10-03T16:36:45.003Z,3.57
2017-10-03T16:39:12.453Z,3.07
2017-10-03T16:41:39.901Z,4.00
2017-10-03T16:44:07.390Z,4.03
2017-10-03T16:46:35.242Z,3.83
2017-10-03T16:49:02.685Z,3.60
2017-10-03T16:51:30.446Z,3.70
2017-10-03T16:53:57.903Z,4.73
2017-10-03T16:56:25.359Z,3.77
2017-10-03T16:58:52.838Z,4.73
2017-10-03T17:01:20.683Z,3.60
2017-10-03T17:03:48.141Z,4.00
2017-10-03T17:06:15.651Z,4.40
2017-10-03T17:08:43.136Z,3.93
2017-10-03T17:11:10.585Z,4.20
2017-10-03T17:13:38.356Z,3.60
2017-10-03T17:16:05.808Z,5.40
2017-10-03T17:18:33.253Z,4.20
2017-10-03T17:21:00.762Z,4.27
2017-10-03T17:23:28.614Z,3.50
2017-10-03T17:25:56.515Z,4.17
2017-10-03T17:28:24.081Z,5.33
2017-10-03T17:30:51.553Z,5.07
2017-10-03T17:33:19.036Z,3.40
2017-10-03T17:35:46.918Z,3.97
2017-10-03T17:38:14.757Z,3.90
2017-10-03T17:40:42.218Z,4.47
2017-10-03T17:43:09.699Z,4.27
2017-10-03T17:45:37.160Z,5.17
2017-10-03T17:48:04.614Z,5.03
2017-10-03T17:50:32.069Z,4.10
2017-10-03T17:52:59.521Z,4.43
2017-10-03T17:55:27.104Z,4.30
2017-10-03T17:57:54.606Z,4.93
2017-10-03T18:00:22.103Z,4.50
2017-10-03T18:02:49.647Z,3.57
2017-10-03T18:05:17.494Z,4.13
2017-10-03T18:07:44.950Z,4.50
2017-10-03T18:10:13.010Z,5.10
2017-10-03T18:12:40.498Z,3.83
2017-10-03T18:15:08.426Z,4.63
2017-10-03T18:17:36.245Z,4.50
2017-10-03T18:20:04.540Z,5.30
2017-10-03T18:22:32.080Z,4.30
2017-10-03T18:24:59.803Z,4.70
2017-10-03T18:27:27.797Z,6.17
2017-10-03T18:29:55.359Z,6.57
2017-10-03T18:32:22.999Z,5.10
2017-10-03T18:34:50.611Z,5.37
2017-10-03T18:37:18.228Z,4.67
2017-10-03T18:39:46.037Z,6.27
2017-10-03T18:42:13.562Z,4.70
2017-10-03T18:44:41.172Z,4.70
2017-10-03T18:47:09.282Z,4.67
2017-10-03T18:49:36.972Z,3.57
2017-10-03T18:52:04.635Z,4.70
2017-10-03T18:54:32.428Z,4.63
2017-10-03T18:57:00.240Z,5.43
2017-10-03T18:59:27.989Z,5.10
2017-10-03T19:01:56.096Z,4.50
2017-10-03T19:04:23.820Z,4.40
2017-10-03T19:06:51.711Z,4.23
2017-10-03T19:09:19.739Z,4.50
2017-10-03T19:11:47.408Z,4.00
2017-10-03T19:14:15.157Z,4.50
2017-10-03T19:16:42.907Z,4.87
2017-10-03T19:19:10.636Z,4.30
2017-10-03T19:21:38.888Z,4.63
2017-10-03T19:24:06.810Z,4.33
2017-10-03T19:26:34.558Z,4.33
2017-10-03T19:29:02.442Z,3.90
2017-10-03T19:31:30.473Z,4.87
2017-10-03T19:33:58.165Z,4.10
2017-10-03T19:36:25.999Z,4.60
2017-10-03T19:38:53.717Z,4.10
2017-10-03T19:41:21.379Z,3.73
2017-10-03T19:43:48.998Z,3.53
2017-10-03T19:46:16.752Z,4.40
2017-10-03T19:48:44.780Z,3.70
2017-10-03T19:51:12.449Z,3.30
2017-10-03T19:53:40.114Z,3.00
2017-10-03T19:56:07.802Z,4.50
2017-10-03T19:58:35.869Z,3.93
2017-10-03T20:01:04.031Z,3.67
2017-10-03T20:03:32.017Z,3.50
2017-10-03T20:05:59.690Z,3.47
2017-10-03T20:08:27.497Z,5.10
2017-10-03T20:10:55.213Z,3.90
2017-10-03T20:13:22.997Z,3.73
2017-10-03T20:15:50.728Z,3.57
2017-10-03T20:18:18.402Z,3.83
2017-10-03T20:20:46.436Z,3.57
2017-10-03T20:23:14.106Z,4.43
2017-10-03T20:25:41.572Z,2.83
2017-10-03T20:28:09.033Z,3.73
2017-10-03T20:30:36.529Z,3.40
2017-10-03T20:33:03.993Z,3.33
2017-10-03T20:35:31.466Z,4.13
2017-10-03T20:37:58.940Z,3.87
2017-10-03T20:40:26.431Z,2.80
2017-10-03T20:42:54.570Z,4.00
2017-10-03T20:45:22.040Z,3.97
2017-10-03T20:47:49.485Z,3.93
2017-10-03T20:50:16.971Z,3.60
2017-10-03T20:52:44.814Z,4.77
2017-10-03T20:55:12.270Z,5.00
2017-10-03T20:57:40.005Z,4.37
2017-10-03T21:00:07.461Z,4.40
2017-10-03T21:02:34.918Z,4.00
2017-10-03T21:05:02.385Z,3.87
2017-10-03T21:07:29.862Z,4.70
2017-10-03T21:09:57.709Z,3.57
2017-10-03T21:12:25.162Z,3.43
2017-10-03T21:14:52.639Z,3.73
2017-10-03T21:17:20.481Z,4.20
2017-10-03T21:19:47.943Z,3.73
2017-10-03T21:22:15.429Z,4.33
2017-10-03T21:24:42.882Z,3.57
2017-10-03T21:27:10.330Z,3.43
2017-10-03T21:29:38.570Z,5.00
2017-10-03T21:32:06.029Z,4.10
2017-10-03T21:34:33.478Z,3.57
2017-10-03T21:37:01.242Z,4.40
2017-10-03T21:39:28.683Z,3.73
2017-10-03T21:42:08.008Z,3.60
2017-10-03T21:44:35.462Z,3.63
2017-10-03T21:47:02.927Z,3.80
2017-10-03T21:49:30.726Z,3.60
2017-10-03T21:51:58.171Z,4.60
2017-10-03T21:54:25.617Z,5.47
2017-10-03T21:56:53.183Z,3.93
2017-10-03T21:59:21.050Z,3.50
2017-10-03T22:01:48.510Z,3.50
2017-10-03T22:04:16.063Z,3.60
2017-10-03T22:06:43.519Z,3.93
2017-10-03T22:09:10.970Z,4.37
2017-10-03T22:11:38.709Z,3.57
2017-10-03T22:14:06.166Z,3.73
2017-10-03T22:16:33.624Z,3.30
2017-10-03T22:19:01.132Z,4.13
2017-10-03T22:21:28.966Z,4.40
2017-10-03T22:23:56.428Z,3.67
2017-10-03T22:26:24.286Z,3.60
2017-10-03T22:28:52.134Z,3.30
2017-10-03T22:31:19.597Z,3.33
2017-10-03T22:33:47.053Z,3.70
2017-10-03T22:36:14.510Z,4.53
2017-10-03T22:38:41.982Z,3.80
2017-10-03T22:41:09.837Z,3.80
2017-10-03T22:43:37.693Z,4.33
2017-10-03T22:46:05.163Z,3.07
2017-10-03T22:48:33.021Z,3.60
2017-10-03T22:51:06.417Z,4.37
2017-10-03T22:53:33.895Z,3.87
2017-10-03T22:56:01.321Z,3.27
2017-10-03T22:58:29.200Z,4.70
2017-10-03T23:00:57.045Z,4.20
2017-10-03T23:03:24.502Z,3.50
2017-10-03T23:05:52.394Z,3.40
2017-10-03T23:08:19.846Z,3.67
2017-10-03T23:10:47.698Z,3.60
2017-10-03T23:13:15.678Z,5.23
2017-10-03T23:15:43.522Z,3.13
2017-10-03T23:18:10.978Z,4.03
2017-10-03T23:20:38.881Z,3.37
2017-10-03T23:23:06.330Z,3.60
2017-10-03T23:25:33.797Z,3.77
2017-10-03T23:28:01.499Z,3.80
2017-10-03T23:30:28.955Z,3.50
2017-10-03T23:32:56.414Z,3.40
2017-10-03T23:35:23.898Z,3.60
2017-10-03T23:37:51.349Z,3.83
2017-10-03T23:40:19.210Z,3.83
2017-10-03T23:42:47.062Z,3.50
2017-10-03T23:45:14.925Z,3.40
2017-10-03T23:47:42.387Z,3.80
2017-10-03T23:50:10.433Z,3.90
2017-10-03T23:52:37.882Z,4.83
2017-10-03T23:55:05.337Z,4.73
2017-10-03T23:57:32.859Z,4.03
